2019 Emerald Isle 1-mile


Age Group Results


March 17, 2019




Results By Time to Run Timing, Inc.



Men: Top Finishers 1- 9 10-15 16-19 20-29 30-39 40-49 50-59 60-69

Women: Top Finishers 1- 9 10-15 16-19 20-29 30-39 40-49 50-59 60-69 70-79

1-MIle

Top

Female Open Winners

Place Name City Bib No Age Overall Total Time
1 Calista Stefaniak Chicago IL 677 20 10 6:28.1
Top

Male Open Winners

Place Name City Bib No Age Overall Total Time
1 Anthony Fenton Chicago IL 449 20 1 4:54.6
Top

Female 9 and Under

Place Name City Bib No Age Overall Total Time
1 Nora Gunning Oak Lawn IL 461 8 41 8:11.5
2 Isla Murray Chicago IL 485 7 95 11:28.0
3 Emily Kiper Chicago IL 469 7 97 11:35.0
Top

Male 9 and Under

Place Name City Bib No Age Overall Total Time
1 Logan Shields Evergreen Park IL 642 8 19 7:14.4
2 Tommy Sheahan Chicago IL 665 9 26 7:29.1
3 Jack Wilson Chicago IL 657 9 28 7:34.7
4 Karsten Templeton Bentonville AR 686 7 66 9:22.5
5 Declan Paller Chicago IL 489 5 77 10:07.5
6 Liam Flood Chicago IL 452 8 107 14:07.5
Top

Female 10 to 15

Place Name City Bib No Age Overall Total Time
1 Mae O’Malley Chicago IL 487 15 29 7:34.8
2 Allison Schiestel Chicago IL 660 14 33 7:45.3
3 Aislinn Taylor Chicago IL 688 10 39 8:02.3
4 Aniela Murphy Chicago IL 483 10 58 8:59.7
5 Mardi Gunning Oak Lawn IL 462 10 69 9:35.0
6 Ellie Pfeiffer Chicago IL 670 10 74 9:51.4
7 Susie Hayes Chicago IL 672 13 90 10:55.1
8 Lucy Pfeiffer Chicago IL 666 13 91 11:16.1
9 Eleni Murray Chicago IL 484 10 98 11:43.0
10 Eliza Jackson Chicago IL 691 10 105 13:15.4
Top

Male 10 to 15

Place Name City Bib No Age Overall Total Time
1 Joey Pfeiffer Chicago IL 669 15 13 7:02.0
2 Bennett Sherman Chicago IL 640 13 16 7:08.2
3 Andrew Stodolny Chicago IL 671 10 24 7:23.4
4 Wyatt Jackson Chicago IL 690 11 36 7:54.5
5 Cameron Sassano Menomonee Falls WI 637 13 40 8:11.4
6 Ben Kiper Chicago IL 468 10 92 11:22.5
7 Quinn Thurn Oak Lawn IL 650 11 94 11:27.4
Top

Female 16 to 19

Place Name City Bib No Age Overall Total Time
1 Grace Gonzalez Chicago IL 458 18 22 7:19.2
Top

Male 16 to 19

Place Name City Bib No Age Overall Total Time
1 Anders O’Laughlin Chicago IL 667 18 23 7:23.3
2 Eamon Ryan Lake Forest IL 636 16 93 11:24.3
3 Sean Ryan Lake Forest IL 635 16 100 11:45.3
Top

Female 20 to 29

Place Name City Bib No Age Overall Total Time
1 Maria McIntyre Chicago IL 661 29 35 7:52.6
2 Veronica Szklarzewski Chicago IL 647 26 51 8:46.1
3 Kate Ryan Lake Forest IL 498 26 70 9:40.5
4 Aileen Ryan Lake Forest IL 499 25 71 9:41.0
5 Stephanie Ramirez Chicago IL 492 26 78 10:08.5
6 Natasha Boghani Dallas TX 430 25 79 10:09.3
7 Katie Porter Chicago IL 491 28 80 10:15.7
8 Mary Kimmel Osceola Mills PA 466 25 86 10:33.2
Top

Male 20 to 29

Place Name City Bib No Age Overall Total Time
1 Bokil Lopez-Pineda Sf CA 476 25 5 5:54.1
2 Matt Connelly Chicago IL 441 26 6 5:56.9
3 Daniel Howe Chicago IL 676 26 27 7:32.1
4 Nate Colgan Madison WI 438 25 32 7:43.8
5 Brandon Lowe Dallas TX 477 26 50 8:45.6
Top

Female 30 to 39

Place Name City Bib No Age Overall Total Time
1 Lindsay Wilson Menomonee Falls WI 653 31 15 7:07.5
2 Karen Winstead Evergreen Park IL 654 38 18 7:13.8
3 Colleen Cushing Evergreen Park IL 444 38 20 7:14.5
4 Kathleen Dewan Evergreen Park IL 447 31 30 7:36.2
5 Mary Eileen Marren Chicago IL 478 36 42 8:12.3
6 Elizabeth Kaufman New Lenox IL 465 32 52 8:48.3
7 Sarah Parro Chicago IL 664 30 56 8:54.9
8 Lisa Wojcik Chicago IL 675 39 57 8:56.3
9 Kyla Templeton Bentonville AR 685 37 62 9:17.5
10 Kenna Brody Hinsdale IL 687 35 63 9:18.3
11 Michelle Rotchadl Menomonee Falls WI 495 37 75 9:56.1
12 Amanda Lawson Hammond IN 678 36 81 10:16.6
13 Adriana Moreno Chicago IL 480 31 89 10:51.0
14 Latiffany Connelly Chicago IL 440 38 104 12:04.1
Top

Male 30 to 39

Place Name City Bib No Age Overall Total Time
1 Joseph Lerner Oak Lawn IL 474 31 2 5:03.6
2 Mike Wolkowicz Chicago IL 655 33 3 5:35.5
3 Kamden Romano Huntley IL 493 33 4 5:44.3
4 Christopher Connelly Chicago IL 439 39 7 6:08.4
5 Brian Boyle Chicago IL 431 33 9 6:19.9
6 Frank Baker Chicago IL 428 38 12 6:42.0
7 Andrew Patterson Chicago IL 490 34 31 7:40.9
8 Quinn Donnelly Chicago IL 663 30 34 7:52.5
9 Timothy Heath Osceola Mills PA 464 39 43 8:24.8
10 Ryan Cushing Evergreen Park IL 445 38 46 8:36.5
11 Benjamin Kummer New Lenox IL 470 34 53 8:49.3
12 Andrew Parro Chicago IL 662 30 54 8:51.4
13 Walter Flood Chicago IL 451 37 109 14:15.1
Top

Female 40 to 49

Place Name City Bib No Age Overall Total Time
1 Libba Hayes Chicago IL 673 48 17 7:10.6
2 Tiffany Harvey Chicago IL 463 45 37 7:57.3
3 Lisa Shields Evergreen Park IL 641 44 44 8:30.3
4 Andrew Stodolny Chicago IL 644 42 45 8:34.8
5 Mandy Bunte Oak Lawn IL 434 44 67 9:32.9
6 Dawn Pfeiffer Chicago IL 668 47 82 10:16.9
7 Maureen Coogan-Miller Crestwood IL 443 47 88 10:42.0
8 Kasey Jackson Chicago IL 693 49 106 13:32.5
9 Teri Cohee Blacklick OH 437 49 114 15:28.2
Top

Male 40 to 49

Place Name City Bib No Age Overall Total Time
1 Mario Castrejon Chicago IL 689 40 8 6:14.6
2 David Sherman Chicago IL 639 49 14 7:04.5
3 Patrick Tovey Chicago IL 651 49 21 7:16.2
4 Nell Brisard Chicago IL 433 47 38 7:58.8
5 Wendell Thomas Chicago IL 649 45 48 8:39.7
6 John Lorenz chicago IL 656 41 55 8:54.1
7 Michael Murphy Chicago IN 482 46 68 9:33.9
8 Ej Stodolny Palos Heights IL 645 46 99 11:43.4
9 Ted Kiper Chicago IL 467 44 101 11:45.5
Top

Female 50 to 59

Place Name City Bib No Age Overall Total Time
1 Mary Zweifel Palos Hills IL 674 53 49 8:41.7
2 Linda Leyden Chicago IL 475 55 60 9:01.5
3 Kathleen Daly Chicago IL 446 55 61 9:02.9
4 Maura Ryan Lake Forest IL 497 54 102 11:47.0
5 Albina Gorski Glendale Heights IL 459 50 110 14:15.3
6 Amanda Fromwiller Harwood MD 456 51 111 15:09.6
Top

Male 50 to 59

Place Name City Bib No Age Overall Total Time
1 David Leeb Chicago IL 473 53 11 6:38.7
2 William Frieske Chicago IL 454 58 47 8:38.6
3 Timothy Rooney Chicago IL 494 51 59 9:00.5
4 Tracy Rosenstiehl Palos Hills IL 679 53 64 9:20.5
5 Tim McSweeney Chicago IL 479 56 76 10:04.6
6 Thomas Ryan Lake Forest IL 496 55 83 10:24.4
7 James Kummerer Oak Lawn IL 471 52 96 11:31.0
8 Graham Jackson Chicago IL 692 51 103 11:56.0
9 Kevin Fromwiller Harwood MD 455 53 112 15:19.0
10 Steve Cohee Blacklick OH 436 52 113 15:27.7
Top

Female 60 to 69

Place Name City Bib No Age Overall Total Time
1 Donna-Louise Strand Chicago IL 646 62 72 9:42.1
2 Sharon Ostrowski Chicago IL 488 61 84 10:30.8
Top

Male 60 to 69

Place Name City Bib No Age Overall Total Time
1 William Faber Chicago IL 658 66 25 7:24.5
2 Brian Boyle Chicago IL 432 61 65 9:22.2
3 Patrick Griffin Chicago IL 460 62 73 9:46.7
4 Ed Walsh Chicago IL 659 62 108 14:09.2
Top

Female 70 to 79

Place Name City Bib No Age Overall Total Time
1 Carolyn Leeb Chicago IL 472 73 85 10:32.3
2 Margie Tucker Chicago IL 652 70 87 10:41.3